Time;durP1;ratioP1;P1;durP2;ratioP2;P2;SDS_P1;SDS_P2;PMS_P1;PMS_P2;Temp;Humidity;BMP_temperature;BMP_pressure;BME280_temperature;BME280_humidity;BME280_pressure;Samples;Min_cycle;Max_cycle;Signal;HPM_P1;HPM_P2
2023/11/08 00:01:10;;;;;;;13.05;5.90;;;;;;;9.93;74.40;99404.66;6139800;23;20032;-90
2023/11/08 00:03:35;;;;;;;16.83;6.70;;;;;;;10.02;74.19;99419.22;6168339;23;20020;-90
2023/11/08 00:06:01;;;;;;;16.27;6.35;;;;;;;10.04;74.05;99405.47;6169661;23;20008;-91
2023/11/08 00:08:26;;;;;;;13.07;7.20;;;;;;;10.06;73.83;99411.41;6168900;23;20012;-91
2023/11/08 00:10:52;;;;;;;14.27;5.47;;;;;;;10.07;73.92;99400.41;6144166;23;20001;-93
2023/11/08 00:13:20;;;;;;;15.60;5.57;;;;;;;10.06;74.15;99389.88;6143689;23;20008;-91
2023/11/08 00:15:48;;;;;;;17.88;6.50;;;;;;;10.20;74.16;99409.84;6145246;23;20325;-92
2023/11/08 00:18:13;;;;;;;22.35;6.28;;;;;;;10.08;74.04;99385.06;6144120;23;20004;-89
2023/11/08 00:20:39;;;;;;;14.25;6.63;;;;;;;10.21;74.29;99405.25;6143908;23;20451;-90
2023/11/08 00:23:04;;;;;;;13.48;6.05;;;;;;;10.22;74.49;99409.59;6168307;23;20004;-91
2023/11/08 00:25:30;;;;;;;14.68;5.68;;;;;;;10.12;74.79;99396.91;6143697;23;20055;-91
2023/11/08 00:27:58;;;;;;;12.65;5.22;;;;;;;10.11;74.40;99401.47;6169666;23;20012;-91
2023/11/08 00:30:24;;;;;;;14.73;6.05;;;;;;;9.94;74.81;99387.44;6170868;23;20347;-90
2023/11/08 00:32:49;;;;;;;13.88;5.43;;;;;;;10.12;74.71;99408.47;6168442;23;20004;-91
2023/11/08 00:35:15;;;;;;;14.70;6.45;;;;;;;9.84;74.68;99364.00;6144902;23;20005;-92
2023/11/08 00:37:40;;;;;;;18.95;6.40;;;;;;;10.11;74.29;99385.34;6145883;23;20004;-92
2023/11/08 00:40:07;;;;;;;13.77;6.57;;;;;;;10.15;74.40;99393.69;6169565;23;19996;-91
2023/11/08 00:42:32;;;;;;;13.95;5.90;;;;;;;10.03;74.49;99371.59;6144677;23;20087;-92
2023/11/08 00:45:00;;;;;;;16.80;6.18;;;;;;;9.98;74.88;99363.50;6145601;23;20001;-91
2023/11/08 00:47:27;;;;;;;12.98;5.07;;;;;;;9.89;75.14;99355.16;6169631;23;19996;-91
2023/11/08 00:49:53;;;;;;;12.45;6.22;;;;;;;9.85;74.93;99337.91;6169532;23;20008;-91
2023/11/08 00:52:19;;;;;;;13.38;6.30;;;;;;;9.94;74.97;99348.97;6143472;23;20032;-90
2023/11/08 00:54:44;;;;;;;12.25;6.13;;;;;;;9.95;75.21;99355.97;6144503;23;20340;-91
2023/11/08 00:57:12;;;;;;;13.18;5.68;;;;;;;9.92;75.40;99343.88;6144919;23;20000;-90
2023/11/08 00:59:38;;;;;;;13.60;5.53;;;;;;;9.96;75.46;99333.38;6170504;23;19996;-90
2023/11/08 01:02:04;;;;;;;18.95;5.47;;;;;;;9.88;75.09;99326.66;6143281;23;20003;-92
2023/11/08 01:04:29;;;;;;;17.73;5.60;;;;;;;9.83;75.17;99332.00;6168373;23;20039;-92
2023/11/08 01:06:55;;;;;;;11.05;5.22;;;;;;;9.74;74.81;99318.25;6143993;23;20001;-92
2023/11/08 01:09:20;;;;;;;17.77;5.65;;;;;;;9.68;75.08;99314.75;6143779;23;20462;-92
2023/11/08 01:11:47;;;;;;;12.95;5.53;;;;;;;9.75;75.03;99327.94;6143581;23;20004;-92
2023/11/08 01:14:13;;;;;;;8.38;5.53;;;;;;;9.51;75.24;99281.91;6168527;23;20063;-92
2023/11/08 01:16:39;;;;;;;12.70;5.30;;;;;;;9.59;75.13;99288.66;6169265;23;20404;-92
2023/11/08 01:19:04;;;;;;;11.40;4.72;;;;;;;9.49;75.13;99276.78;6168438;23;20419;-91
2023/11/08 01:21:36;;;;;;;14.93;4.95;;;;;;;9.60;75.11;99292.94;6172289;23;20005;-94
2023/11/08 01:24:05;;;;;;;15.80;5.50;;;;;;;9.73;75.56;99308.56;6153072;23;20000;-94
2023/11/08 01:26:31;;;;;;;13.50;5.72;;;;;;;9.56;75.60;99281.09;6151616;23;20420;-94
2023/11/08 01:28:57;;;;;;;9.98;4.95;;;;;;;9.63;75.68;99287.03;6176466;23;19989;-95
2023/11/08 01:31:25;;;;;;;13.65;5.78;;;;;;;9.67;75.67;99282.72;6148581;23;20007;-95
2023/11/08 01:33:54;;;;;;;18.25;5.85;;;;;;;9.58;75.83;99269.00;6173841;23;20416;-95
2023/11/08 01:36:23;;;;;;;15.85;6.70;;;;;;;9.45;75.68;99248.00;6174183;23;20032;-95
2023/11/08 01:38:57;;;;;;;14.25;6.18;;;;;;;9.57;76.12;99264.72;6174193;23;19997;-95
2023/11/08 01:41:23;;;;;;;16.73;6.60;;;;;;;9.48;75.86;99245.63;6152641;23;19984;-96
2023/11/08 01:43:49;;;;;;;15.30;6.20;;;;;;;9.60;75.41;99269.53;6148724;23;20367;-95
2023/11/08 01:46:27;;;;;;;12.75;6.50;;;;;;;9.63;75.51;99260.97;6174732;23;20001;-95
2023/11/08 01:48:58;;;;;;;20.05;6.85;;;;;;;9.57;75.50;99247.78;6149787;23;20091;-94
2023/11/08 01:51:26;;;;;;;19.15;6.57;;;;;;;9.44;75.41;99228.41;6151275;23;20452;-94
2023/11/08 01:53:53;;;;;;;17.98;7.35;;;;;;;9.60;74.92;99241.88;6149819;23;19997;-95
2023/11/08 01:56:22;;;;;;;13.02;6.45;;;;;;;9.63;74.92;99238.63;6175715;23;20436;-95
2023/11/08 01:58:59;;;;;;;15.35;6.82;;;;;;;9.59;75.48;99242.97;6178272;23;20059;-95
2023/11/08 02:01:30;;;;;;;17.35;6.13;;;;;;;9.54;75.26;99238.34;6154642;23;20010;-95
2023/11/08 02:03:56;;;;;;;14.93;6.60;;;;;;;9.65;75.02;99244.56;6145695;23;20016;-94
2023/11/08 02:06:22;;;;;;;14.02;6.60;;;;;;;9.60;75.03;99231.13;6119851;23;20321;-94
2023/11/08 02:08:48;;;;;;;16.88;6.75;;;;;;;9.60;75.05;99233.81;6120160;23;20013;-96
2023/11/08 02:11:16;;;;;;;13.05;6.88;;;;;;;9.55;75.50;99228.44;6148371;23;20055;-95
2023/11/08 02:13:42;;;;;;;15.00;6.32;;;;;;;9.56;75.15;99238.91;6121395;23;20001;-96
2023/11/08 02:16:08;;;;;;;18.27;7.18;;;;;;;9.56;75.23;99241.59;6122778;23;20008;-95
2023/11/08 02:18:39;;;;;;;15.65;6.88;;;;;;;9.54;75.48;99234.88;6122369;23;19993;-94
2023/11/08 02:21:08;;;;;;;22.85;7.65;;;;;;;9.45;76.11;99229.19;6124874;23;20008;-95
2023/11/08 02:23:34;;;;;;;13.10;6.47;;;;;;;9.43;75.50;99229.47;6115574;23;19992;-94
2023/11/08 02:25:59;;;;;;;21.33;6.35;;;;;;;9.35;75.89;99224.59;6163086;23;20001;-94
2023/11/08 02:28:25;;;;;;;17.13;7.43;;;;;;;9.31;75.76;99215.44;6140830;23;20076;-95
2023/11/08 02:30:53;;;;;;;19.42;7.10;;;;;;;9.45;75.58;99226.50;6166643;23;20001;-94
2023/11/08 02:33:22;;;;;;;18.90;7.07;;;;;;;9.45;75.76;99231.88;6139576;23;20011;-95
2023/11/08 02:35:48;;;;;;;15.88;6.85;;;;;;;9.44;75.81;99232.94;6140033;23;20083;-95
2023/11/08 02:38:14;;;;;;;17.20;7.15;;;;;;;9.38;75.30;99224.09;6139040;23;19993;-95
2023/11/08 02:40:43;;;;;;;25.15;7.47;;;;;;;9.46;76.16;99239.69;6139632;23;20003;-96
2023/11/08 02:43:09;;;;;;;16.50;7.43;;;;;;;9.39;75.59;99228.38;6117231;23;20008;-94
2023/11/08 02:45:35;;;;;;;15.48;7.38;;;;;;;9.33;75.74;99226.75;6116633;23;20072;-94
2023/11/08 02:48:03;;;;;;;15.07;7.25;;;;;;;9.33;75.47;99224.03;6190601;23;20001;-93
2023/11/08 02:50:31;;;;;;;13.60;7.15;;;;;;;9.38;75.42;99218.72;6141491;23;19997;-95
2023/11/08 02:52:58;;;;;;;15.55;6.97;;;;;;;9.40;76.05;99235.38;6142123;23;19987;-95
2023/11/08 02:55:27;;;;;;;21.02;8.07;;;;;;;9.41;75.53;99230.81;6165465;23;20001;-93
2023/11/08 02:57:55;;;;;;;12.35;6.95;;;;;;;9.40;75.48;99218.41;6163482;23;20001;-95
2023/11/08 03:00:21;;;;;;;20.27;6.90;;;;;;;9.28;75.70;99203.34;6166522;23;20076;-95
2023/11/08 03:02:47;;;;;;;15.93;7.38;;;;;;;9.51;75.56;99239.69;6167256;23;19997;-94
2023/11/08 03:05:13;;;;;;;16.75;7.45;;;;;;;9.44;75.31;99230.25;6146375;23;20054;-94
2023/11/08 03:11:07;;;;;;;22.33;7.88;;;;;;;9.53;75.15;99252.06;6222300;23;20355;-95
2023/11/08 03:13:33;;;;;;;15.70;7.25;;;;;;;9.45;75.57;99237.25;6172255;23;20447;-94
2023/11/08 03:15:59;;;;;;;16.83;7.25;;;;;;;9.48;75.48;99234.88;6170137;23;20008;-96
2023/11/08 03:18:25;;;;;;;19.42;8.13;;;;;;;9.41;75.28;99220.84;6170941;23;20027;-94
2023/11/08 03:20:50;;;;;;;16.92;7.75;;;;;;;9.46;75.38;99234.31;6195815;23;20027;-94
2023/11/08 03:23:16;;;;;;;14.27;7.53;;;;;;;9.42;75.20;99243.97;6222731;23;20387;-94
2023/11/08 03:25:42;;;;;;;17.05;7.38;;;;;;;9.27;75.53;99215.16;6195221;23;20024;-94
2023/11/08 03:28:09;;;;;;;16.80;7.82;;;;;;;9.24;75.83;99225.66;6195970;23;20005;-95
2023/11/08 03:30:36;;;;;;;15.55;6.90;;;;;;;9.23;75.16;99215.94;6196607;23;20019;-94
2023/11/08 03:33:02;;;;;;;20.27;7.57;;;;;;;9.40;75.23;99251.50;6223334;23;20007;-95
2023/11/08 03:35:27;;;;;;;17.88;7.72;;;;;;;9.32;75.28;99227.81;6170047;23;20030;-93
2023/11/08 03:37:54;;;;;;;24.05;7.88;;;;;;;9.31;75.21;99216.25;6146974;23;20031;-94
2023/11/08 03:40:23;;;;;;;24.45;7.63;;;;;;;9.23;75.42;99211.38;6147823;23;20087;-94
2023/11/08 03:42:49;;;;;;;11.93;6.75;;;;;;;9.18;75.52;99189.09;6147423;23;20005;-95
2023/11/08 03:45:17;;;;;;;12.63;7.18;;;;;;;9.51;74.91;99223.56;6170926;23;20007;-93
2023/11/08 03:47:43;;;;;;;15.60;6.60;;;;;;;9.40;75.19;99215.72;6171130;23;19997;-94
2023/11/08 03:50:09;;;;;;;16.55;7.47;;;;;;;9.39;75.22;99214.94;6171879;23;20027;-94
2023/11/08 03:52:34;;;;;;;18.42;7.40;;;;;;;9.39;75.37;99230.25;6171295;23;20005;-94
2023/11/08 03:55:05;;;;;;;21.67;7.88;;;;;;;9.23;75.33;99222.13;6146029;23;20059;-95
2023/11/08 03:57:31;;;;;;;15.13;8.30;;;;;;;9.25;75.63;99221.88;6147074;23;20004;-94
2023/11/08 03:59:57;;;;;;;14.38;7.05;;;;;;;9.31;75.34;99215.44;6172042;23;19992;-95
2023/11/08 04:02:23;;;;;;;15.70;7.55;;;;;;;9.33;75.60;99209.81;6171661;23;20364;-95
2023/11/08 04:04:48;;;;;;;19.50;7.80;;;;;;;9.33;75.25;99205.25;6172203;23;20016;-95
2023/11/08 04:07:18;;;;;;;18.02;7.72;;;;;;;9.26;75.92;99194.75;6178280;23;19996;-95
2023/11/08 04:09:47;;;;;;;16.40;8.02;;;;;;;9.39;75.54;99214.94;6179777;23;20002;-95
2023/11/08 04:12:22;;;;;;;20.30;7.63;;;;;;;9.42;75.63;99218.97;6184348;23;20083;-95
2023/11/08 04:14:48;;;;;;;19.45;7.20;;;;;;;9.42;75.10;99192.09;6164212;23;19996;-95
2023/11/08 04:17:19;;;;;;;20.83;8.25;;;;;;;9.55;75.11;99209.63;6162419;23;20008;-94
2023/11/08 04:19:47;;;;;;;17.77;8.88;;;;;;;9.38;75.21;99202.59;6188096;23;20027;-95
2023/11/08 04:22:16;;;;;;;26.42;9.43;;;;;;;9.49;75.20;99206.09;6187399;23;19996;-95
2023/11/08 04:24:44;;;;;;;20.45;8.10;;;;;;;9.40;75.41;99175.44;6179273;23;20014;-96
2023/11/08 04:27:10;;;;;;;23.58;9.23;;;;;;;9.40;75.62;99191.56;6153462;23;20004;-96
2023/11/08 04:29:39;;;;;;;22.77;8.65;;;;;;;9.42;75.20;99186.72;6175012;23;20005;-93
2023/11/08 04:32:06;;;;;;;24.30;10.10;;;;;;;9.39;75.56;99187.25;6146455;23;20000;-95
2023/11/08 04:34:35;;;;;;;18.30;9.70;;;;;;;9.48;75.13;99189.19;6145421;23;19996;-92
2023/11/08 04:37:02;;;;;;;21.02;9.52;;;;;;;9.53;75.23;99193.75;6167897;23;20071;-91
2023/11/08 04:39:29;;;;;;;25.52;9.00;;;;;;;9.42;75.55;99158.00;6145164;23;20003;-90
2023/11/08 04:41:55;;;;;;;18.38;8.48;;;;;;;9.42;75.17;99160.69;6192584;23;20147;-91
2023/11/08 04:44:20;;;;;;;15.90;8.40;;;;;;;9.61;75.10;99181.66;6144325;23;19984;-91
2023/11/08 04:46:46;;;;;;;26.88;10.27;;;;;;;9.60;74.65;99167.41;6173414;23;20063;-91
2023/11/08 04:49:12;;;;;;;21.60;9.27;;;;;;;9.67;74.71;99173.34;6144681;23;20004;-90
2023/11/08 04:51:37;;;;;;;21.75;9.32;;;;;;;9.76;74.79;99179.00;6144933;23;20032;-91
2023/11/08 04:54:04;;;;;;;34.05;10.05;;;;;;;9.57;74.54;99151.81;6144705;23;20031;-92
2023/11/08 04:56:29;;;;;;;22.15;11.15;;;;;;;9.73;74.83;99179.50;6144903;23;20090;-91
2023/11/08 04:58:55;;;;;;;22.98;10.20;;;;;;;9.58;74.97;99166.06;6169215;23;19997;-92
2023/11/08 05:01:21;;;;;;;24.83;10.52;;;;;;;9.58;74.88;99168.75;6144842;23;19997;-93
2023/11/08 05:03:47;;;;;;;20.55;9.93;;;;;;;9.62;74.85;99180.59;6146868;23;20016;-92
2023/11/08 05:06:16;;;;;;;28.73;10.85;;;;;;;9.64;74.19;99165.78;6144124;23;20356;-91
2023/11/08 05:08:43;;;;;;;24.17;10.65;;;;;;;9.86;74.24;99194.34;6194285;23;20085;-92
2023/11/08 05:11:08;;;;;;;23.67;10.48;;;;;;;9.65;74.25;99161.22;6144755;23;20031;-92
2023/11/08 05:13:35;;;;;;;27.10;10.38;;;;;;;9.75;74.43;99176.56;6143841;23;19996;-93
2023/11/08 05:16:00;;;;;;;25.60;10.93;;;;;;;9.65;74.56;99151.28;6144123;23;20036;-91
2023/11/08 05:18:32;;;;;;;26.70;10.77;;;;;;;9.78;74.60;99155.31;6144527;23;20004;-93
2023/11/08 05:21:06;;;;;;;25.85;11.30;;;;;;;10.08;73.85;99191.38;6148671;23;20067;-92
2023/11/08 05:23:53;;;;;;;30.65;11.00;;;;;;;9.91;74.06;99160.16;6146823;23;20004;-93
2023/11/08 05:26:19;;;;;;;24.45;11.55;;;;;;;9.97;74.29;99157.50;6175896;23;20049;-92
2023/11/08 05:28:47;;;;;;;27.42;11.60;;;;;;;10.10;74.06;99181.13;6147200;23;20005;-90
2023/11/08 05:31:14;;;;;;;30.60;13.50;;;;;;;10.14;73.79;99182.22;6172103;23;20004;-93
2023/11/08 05:33:40;;;;;;;27.15;12.65;;;;;;;10.26;73.12;99177.38;6148127;23;20407;-91
2023/11/08 05:36:09;;;;;;;36.25;14.63;;;;;;;10.34;73.07;99183.31;6171586;23;19996;-93
2023/11/08 05:38:34;;;;;;;27.30;12.32;;;;;;;10.35;73.55;99174.16;6171970;23;20001;-93
2023/11/08 05:41:00;;;;;;;26.75;11.15;;;;;;;10.37;73.80;99170.09;6169723;23;20000;-91
2023/11/08 05:43:27;;;;;;;33.38;11.85;;;;;;;10.60;73.39;99192.13;6144770;23;20023;-91
2023/11/08 05:45:55;;;;;;;26.63;12.50;;;;;;;10.57;73.35;99182.72;6147505;23;20011;-93
2023/11/08 05:48:23;;;;;;;34.17;11.38;;;;;;;10.59;73.03;99172.50;6148548;23;20007;-91
2023/11/08 05:50:55;;;;;;;28.65;12.02;;;;;;;10.82;72.75;99197.22;6144543;23;20410;-91
2023/11/08 05:53:30;;;;;;;30.30;12.70;;;;;;;10.85;72.66;99199.34;6145970;23;20004;-93
2023/11/08 05:55:58;;;;;;;31.75;12.00;;;;;;;10.96;72.44;99206.31;6151267;23;20012;-93
2023/11/08 05:58:33;;;;;;;35.03;12.23;;;;;;;11.02;71.99;99190.91;6172694;23;19993;-94
2023/11/08 06:01:11;;;;;;;;;;;;;;;;;;;;;
2023/11/08 06:03:37;;;;;;;41.10;15.50;;;;;;;11.28;71.06;99213.19;6198713;23;20039;-91
2023/11/08 06:06:09;;;;;;;35.33;13.48;;;;;;;11.39;70.64;99217.44;6167761;23;20017;-93
2023/11/08 06:08:37;;;;;;;28.38;13.07;;;;;;;11.46;71.32;99241.41;6147292;23;20020;-92
2023/11/08 06:11:07;;;;;;;36.63;12.90;;;;;;;11.44;70.87;99233.59;6147023;23;20058;-94
2023/11/08 06:13:34;;;;;;;35.05;13.55;;;;;;;11.70;70.60;99261.25;6147452;23;20028;-89
2023/11/08 06:16:00;;;;;;;26.75;12.57;;;;;;;11.64;70.11;99239.94;6142526;23;20012;-91
2023/11/08 06:18:26;;;;;;;31.38;13.98;;;;;;;11.63;69.58;99233.75;6144204;23;20000;-88
2023/11/08 06:21:08;;;;;;;;;;;;;;;;;;;;;
2023/11/08 06:23:38;;;;;;;33.80;13.85;;;;;;;11.86;69.41;99261.13;6171150;23;20024;-90
2023/11/08 06:26:20;;;;;;;54.47;27.65;;;;;;;11.96;69.28;99268.41;6168582;23;20075;-96
2023/11/08 06:28:59;;;;;;;;;;;;;;;;;;;;;
2023/11/08 06:31:47;;;;;;;;;;;;;;;;;;;;;
2023/11/08 06:34:24;;;;;;;38.60;15.00;;;;;;;11.86;68.69;99286.22;6210411;23;20000;-95
2023/11/08 06:36:49;;;;;;;41.05;16.02;;;;;;;11.78;68.51;99294.91;6206859;23;20020;-95
2023/11/08 06:39:17;;;;;;;40.05;15.18;;;;;;;11.92;68.31;99328.31;6172238;23;20023;-95
2023/11/08 06:41:53;;;;;;;36.28;16.50;;;;;;;11.97;68.54;99340.94;6176317;23;20000;-95
2023/11/08 06:44:19;;;;;;;49.55;18.80;;;;;;;11.83;68.80;99348.84;6153912;23;20000;-94
2023/11/08 06:47:04;;;;;;;36.70;19.42;;;;;;;12.05;68.61;99339.56;6228364;23;20016;-94
2023/11/08 06:49:30;;;;;;;42.17;18.60;;;;;;;12.26;68.14;99338.34;6200994;23;20074;-95
2023/11/08 06:51:58;;;;;;;36.95;15.82;;;;;;;12.20;67.78;99323.28;6195690;23;20049;-94
2023/11/08 06:54:23;;;;;;;43.85;16.02;;;;;;;12.45;67.90;99345.78;6173768;23;19997;-91
2023/11/08 06:56:51;;;;;;;34.58;14.23;;;;;;;12.38;67.24;99324.50;6197198;23;20143;-93
2023/11/08 07:03:09;;;;;;;27.15;12.18;;;;;;;12.63;67.65;99345.09;6141716;23;20009;-95
2023/11/08 07:05:42;;;;;;;27.45;9.60;;;;;;;12.76;67.33;99357.16;6165162;23;20024;-95
2023/11/08 07:08:17;;;;;;;16.13;7.93;;;;;;;12.73;66.75;99336.91;6174756;23;20019;-94
2023/11/08 07:10:46;;;;;;;17.13;7.75;;;;;;;12.98;66.96;99347.78;6153287;23;20004;-95
2023/11/08 07:13:11;;;;;;;17.85;7.38;;;;;;;13.11;66.73;99347.94;6176322;23;20000;-94
2023/11/08 07:15:37;;;;;;;18.30;7.30;;;;;;;13.21;66.04;99355.13;6148574;23;20055;-94
2023/11/08 07:18:03;;;;;;;18.02;6.22;;;;;;;13.41;65.43;99348.72;6173478;23;19996;-94
2023/11/08 07:20:32;;;;;;;23.38;7.22;;;;;;;13.54;65.01;99341.81;6175633;23;20334;-94
2023/11/08 07:23:00;;;;;;;15.07;8.52;;;;;;;13.82;64.27;99355.53;6175928;23;20027;-93
2023/11/08 07:25:32;;;;;;;16.20;6.78;;;;;;;13.87;63.96;99331.91;6179518;23;20001;-93
2023/11/08 07:28:05;;;;;;;25.27;11.55;;;;;;;14.18;63.32;99338.81;6175290;23;20023;-94
2023/11/08 07:30:34;;;;;;;14.95;5.88;;;;;;;14.40;62.30;99344.47;6177246;23;20004;-92
2023/11/08 07:33:00;;;;;;;11.60;4.10;;;;;;;14.43;61.24;99327.59;6147924;23;20008;-94
2023/11/08 07:35:40;;;;;;;14.00;3.28;;;;;;;14.58;61.13;99333.91;6149944;23;20023;-96
2023/11/08 07:38:10;;;;;;;8.70;3.92;;;;;;;14.73;60.59;99339.88;6181612;23;20004;-96
2023/11/08 07:40:50;;;;;;;14.95;5.30;;;;;;;14.92;60.39;99353.38;6178034;23;20017;-94
2023/11/08 07:43:17;;;;;;;14.00;5.60;;;;;;;15.08;60.35;99362.03;6154152;23;20008;-95
2023/11/08 07:46:08;;;;;;;;;;;;;;;;;;;;;
2023/11/08 07:48:47;;;;;;;20.35;7.38;;;;;;;15.15;60.39;99324.50;6231806;23;20027;-94
2023/11/08 07:51:22;;;;;;;16.58;5.50;;;;;;;15.41;59.81;99364.69;6177105;23;19997;-93
2023/11/08 07:53:51;;;;;;;13.25;6.18;;;;;;;15.50;59.37;99372.94;6177564;23;20011;-93
2023/11/08 07:56:21;;;;;;;19.27;5.85;;;;;;;15.43;59.54;99367.13;6154307;23;20054;-96
2023/11/08 08:02:23;;;;;;;15.02;3.78;;;;;;;15.66;58.42;99382.38;6214190;23;20007;-95
2023/11/08 08:04:54;;;;;;;13.63;3.90;;;;;;;15.69;57.82;99364.72;6162070;23;20047;-95
2023/11/08 08:07:19;;;;;;;12.93;4.10;;;;;;;15.89;57.24;99368.94;6176964;23;20017;-96
2023/11/08 08:13:08;;;;;;;11.52;1.88;;;;;;;16.03;56.08;99367.00;6053308;23;20003;-94
2023/11/08 08:15:50;;;;;;;;;;;;;;;;;;;;;
2023/11/08 08:18:26;;;;;;;5.22;2.05;;;;;;;16.07;55.43;99359.06;6063503;23;20022;-96
2023/11/08 08:21:38;;;;;;;7.20;2.10;;;;;;;16.25;55.28;99382.56;6066002;23;20394;-95
2023/11/08 08:24:08;;;;;;;6.70;1.77;;;;;;;16.24;55.26;99370.06;6144381;23;20032;-95
2023/11/08 08:27:09;;;;;;;;;;;;;;;;;;;;;
2023/11/08 08:33:57;;;;;;;10.90;3.42;;;;;;;16.25;56.10;99384.47;6091425;23;20066;-95
2023/11/08 08:40:48;;;;;;;;;;;;;;;;;;;;;
2023/11/08 08:43:44;;;;;;;;;;;;;;;;;;;;;
2023/11/08 08:46:17;;;;;;;14.27;4.70;;;;;;;15.93;58.14;99365.31;6156377;23;20009;-94
2023/11/08 08:51:38;;;;;;;27.67;12.02;;;;;;;16.20;58.03;99392.72;6154977;23;20043;-95
2023/11/08 08:54:35;;;;;;;9.25;4.38;;;;;;;16.26;58.50;99411.31;6127652;23;20005;-95
2023/11/08 09:10:26;;;;;;;11.67;4.43;;;;;;;16.15;58.23;99421.63;6074265;23;20426;-93
2023/11/08 09:12:51;;;;;;;9.85;2.78;;;;;;;16.03;58.96;99390.66;6002414;23;20016;-92
2023/11/08 09:15:31;;;;;;;13.13;4.55;;;;;;;16.02;59.47;99383.59;6027702;23;20362;-92
2023/11/08 09:17:59;;;;;;;17.80;9.00;;;;;;;16.11;59.96;99400.81;6055066;23;20087;-96
2023/11/08 09:24:16;;;;;;;13.38;6.93;;;;;;;16.21;61.53;99389.72;6078766;23;20075;-94
2023/11/08 09:26:41;;;;;;;20.13;12.07;;;;;;;16.18;60.64;99360.44;6028273;23;20002;-93
2023/11/08 09:29:12;;;;;;;16.73;3.85;;;;;;;16.35;60.17;99387.78;6013084;23;20431;-94
2023/11/08 09:31:42;;;;;;;10.38;4.10;;;;;;;16.33;60.11;99392.72;6103565;23;19989;-92
2023/11/08 09:34:12;;;;;;;12.30;4.97;;;;;;;16.40;60.24;99405.06;6132963;23;20345;-92
2023/11/08 09:36:38;;;;;;;8.35;3.05;;;;;;;16.36;60.38;99389.38;6132112;23;20002;-90
2023/11/08 09:39:05;;;;;;;12.77;4.35;;;;;;;16.54;60.56;99400.41;6157988;23;20021;-93
2023/11/08 09:41:30;;;;;;;22.42;9.65;;;;;;;16.39;63.27;99363.47;6156680;23;20105;-92
2023/11/08 09:43:56;;;;;;;21.33;8.75;;;;;;;16.64;62.42;99383.03;6106080;23;20373;-90
2023/11/08 09:46:31;;;;;;;10.75;4.72;;;;;;;16.59;62.21;99373.09;6132412;23;20009;-91
2023/11/08 09:48:56;;;;;;;10.13;3.90;;;;;;;16.72;60.32;99393.16;6130663;23;20006;-91
2023/11/08 09:51:22;;;;;;;15.45;8.27;;;;;;;16.72;61.51;99409.47;6156551;23;20013;-91
2023/11/08 09:53:52;;;;;;;15.48;5.85;;;;;;;16.63;60.84;99376.78;6107818;23;20103;-92
2023/11/08 09:59:54;;;;;;;16.02;5.32;;;;;;;16.57;61.81;99367.94;6161446;23;20009;-92
2023/11/08 10:02:22;;;;;;;28.35;13.20;;;;;;;16.56;61.78;99368.28;6137764;23;20001;-89
2023/11/08 10:04:48;;;;;;;10.80;4.32;;;;;;;16.47;61.83;99364.66;6132898;23;19997;-92
2023/11/08 10:07:16;;;;;;;20.30;5.93;;;;;;;16.52;61.75;99370.81;6108946;23;20005;-90
2023/11/08 10:09:41;;;;;;;21.50;10.23;;;;;;;16.55;61.82;99388.41;6132451;23;20008;-92
2023/11/08 10:12:08;;;;;;;16.08;6.03;;;;;;;16.43;61.33;99375.34;6156779;23;19993;-91
2023/11/08 10:14:39;;;;;;;14.88;5.05;;;;;;;16.55;61.17;99391.91;6133500;23;20429;-91
2023/11/08 10:20:52;;;;;;;13.73;4.57;;;;;;;16.59;60.22;99403.00;5990913;23;20381;-92
2023/11/08 10:26:36;;;;;;;;;;;;;;;;;;;;;
2023/11/08 10:33:08;;;;;;;14.32;4.90;;;;;;;16.87;61.88;99397.44;6131816;23;20453;-93
2023/11/08 10:35:41;;;;;;;16.95;6.15;;;;;;;16.96;62.57;99410.00;6089074;23;20009;-93
2023/11/08 10:38:20;;;;;;;17.83;8.38;;;;;;;17.02;61.90;99410.69;6079387;23;19994;-93
2023/11/08 10:40:49;;;;;;;7.55;3.88;;;;;;;16.72;61.18;99382.28;6056206;23;20043;-93
2023/11/08 10:44:07;;;;;;;13.15;5.47;;;;;;;16.79;60.45;99377.25;6085573;23;20002;-94
2023/11/08 10:46:33;;;;;;;9.20;4.00;;;;;;;16.76;61.61;99384.06;6026841;23;20006;-91
2023/11/08 10:49:22;;;;;;;9.93;4.18;;;;;;;16.88;59.53;99383.56;6052204;23;20006;-93
2023/11/08 10:52:01;;;;;;;;;;;;;;;;;;;;;
2023/11/08 10:54:48;;;;;;;9.80;2.65;;;;;;;16.90;58.75;99385.97;6079406;23;20030;-92
2023/11/08 10:57:46;;;;;;;10.75;3.00;;;;;;;16.99;59.13;99392.25;6080324;23;20010;-95
2023/11/08 11:00:12;;;;;;;11.82;3.58;;;;;;;16.96;60.30;99390.16;6076781;23;20028;-94
2023/11/08 11:03:17;;;;;;;13.30;3.78;;;;;;;16.84;60.66;99374.41;6078960;23;20002;-91
2023/11/08 11:05:50;;;;;;;9.02;2.60;;;;;;;16.91;59.29;99402.00;6133817;23;20016;-94
2023/11/08 11:08:19;;;;;;;7.78;2.53;;;;;;;16.89;59.84;99420.53;6113133;23;20002;-93
2023/11/08 11:10:45;;;;;;;17.15;3.72;;;;;;;16.72;61.06;99402.13;6135851;23;20016;-87
2023/11/08 11:13:19;;;;;;;6.85;2.42;;;;;;;16.67;59.19;99393.31;6161788;23;19998;-93
2023/11/08 11:16:40;;;;;;;15.95;3.03;;;;;;;16.55;59.84;99407.44;6143812;23;19998;-94
2023/11/08 11:19:19;;;;;;;11.55;2.88;;;;;;;16.59;60.86;99441.03;6167524;23;20488;-93
2023/11/08 11:22:30;;;;;;;13.52;4.07;;;;;;;16.50;61.41;99421.16;6171270;23;20020;-94
2023/11/08 11:24:57;;;;;;;8.32;2.50;;;;;;;16.46;60.78;99425.59;6164396;23;20056;-93
2023/11/08 11:28:30;;;;;;;11.68;2.80;;;;;;;16.42;60.59;99411.81;6170109;23;20009;-95
2023/11/08 11:31:47;;;;;;;;;;;;;;;;;;;;;
2023/11/08 11:34:51;;;;;;;9.73;2.67;;;;;;;16.44;62.23;99417.75;6199972;23;20052;-96
2023/11/08 11:37:19;;;;;;;6.05;3.20;;;;;;;16.25;62.19;99365.44;6174563;23;20040;-95
2023/11/08 11:40:43;;;;;;;;;;;;;;;;;;;;;
2023/11/08 11:46:50;;;;;;;11.65;4.78;;;;;;;16.30;64.02;99357.97;6078480;23;20022;-93
2023/11/08 11:49:34;;;;;;;8.90;3.35;;;;;;;16.24;65.03;99380.16;6039026;23;20018;-94
2023/11/08 11:52:05;;;;;;;6.32;2.85;;;;;;;16.38;65.00;99402.66;6074436;23;20013;-93
2023/11/08 11:54:33;;;;;;;6.45;3.03;;;;;;;16.36;64.27;99416.53;6010461;23;20076;-95
2023/11/08 11:57:49;;;;;;;13.73;7.18;;;;;;;16.11;65.79;99426.06;5924738;24;20135;-96
2023/11/08 12:00:16;;;;;;;8.18;2.90;;;;;;;16.23;66.09;99441.84;5985937;24;20031;-92
2023/11/08 12:03:09;;;;;;;8.27;3.22;;;;;;;16.24;66.50;99451.59;5968856;23;19991;-95
2023/11/08 12:06:19;;;;;;;8.65;2.90;;;;;;;16.08;67.15;99456.56;6058308;23;20030;-95
2023/11/08 12:08:45;;;;;;;12.52;3.47;;;;;;;15.88;67.50;99452.31;6052220;23;20002;-94
2023/11/08 12:11:14;;;;;;;7.40;3.80;;;;;;;15.56;68.14;99440.41;6053373;23;20014;-94
2023/11/08 12:14:49;;;;;;;;;;;;;;;;;;;;;
2023/11/08 12:30:13;;;;;;;;;;;;;;;;;;;;;
2023/11/08 12:56:54;;;;;;;7.15;3.40;;;;;;;15.04;73.74;99431.53;6235211;22;20024;-95
2023/11/08 12:59:23;;;;;;;7.55;4.45;;;;;;;15.01;75.48;99442.19;5574955;22;14309081;-95
2023/11/08 13:02:38;;;;;;;;;;;;;;;;;;;;;
2023/11/08 13:18:49;;;;;;;;;;;;;;;15.24;73.99;99489.28;6204845;22;20023;-91
2023/11/08 13:21:47;;;;;;;7.40;2.33;;;;;;;15.01;73.35;99510.78;6157693;23;19912;-92
2023/11/08 13:24:15;;;;;;;5.32;2.42;;;;;;;14.77;72.47;99489.16;6167165;23;20346;-93
2023/11/08 13:27:04;;;;;;;3.13;2.30;;;;;;;14.55;73.71;99466.16;6119943;23;20472;-96
2023/11/08 13:30:09;;;;;;;4.35;2.47;;;;;;;14.52;73.80;99484.88;6141670;23;20005;-92
2023/11/08 13:32:53;;;;;;;;;;;;;;;;;;;;;
2023/11/08 13:35:42;;;;;;;4.47;2.40;;;;;;;14.29;73.02;99495.44;6109521;23;20017;-91
2023/11/08 13:38:10;;;;;;;4.07;2.33;;;;;;;14.31;74.14;99498.69;6078333;23;20037;-91
2023/11/08 13:40:37;;;;;;;3.88;2.10;;;;;;;14.18;74.39;99496.69;6075641;23;20089;-93
2023/11/08 13:43:04;;;;;;;8.75;2.63;;;;;;;14.18;74.96;99512.94;6075043;23;20002;-91
2023/11/08 13:46:11;;;;;;;3.33;2.10;;;;;;;14.04;74.04;99509.31;6075104;23;20468;-93
2023/11/08 13:48:46;;;;;;;4.93;2.00;;;;;;;13.88;74.21;99489.72;6078645;23;20013;-90
2023/11/08 13:51:28;;;;;;;;;;;;;;;;;;;;;
2023/11/08 13:54:23;;;;;;;2.72;1.90;;;;;;;13.83;74.58;99484.38;6060618;23;20033;-93
2023/11/08 13:57:00;;;;;;;;;;;;;;;;;;;;;
2023/11/08 13:59:29;;;;;;;3.53;2.00;;;;;;;13.97;75.46;99508.84;6062107;23;20028;-92
2023/11/08 14:02:05;;;;;;;4.60;2.78;;;;;;;13.78;76.58;99481.69;6094593;23;20012;-92
2023/11/08 14:04:56;;;;;;;5.05;3.58;;;;;;;13.80;75.70;99468.69;6066254;23;20025;-94
2023/11/08 14:07:30;;;;;;;5.20;2.75;;;;;;;13.83;75.37;99490.56;6199595;23;20001;-95
2023/11/08 14:10:14;;;;;;;3.85;2.20;;;;;;;13.97;75.87;99516.97;6129445;23;20005;-96